sensor_id;sensor_type;location;lat;lon;timestamp;P1;durP1;ratioP1;P2;durP2;ratioP2
8086;SDS011;4086;54.412;9.980;2023-04-21T09:26:37;14.83;;;4.80;;
8086;SDS011;4086;54.412;9.980;2023-04-21T09:29:05;7.60;;;4.23;;
8086;SDS011;4086;54.412;9.980;2023-04-21T09:31:31;7.23;;;4.50;;
8086;SDS011;4086;54.412;9.980;2023-04-21T09:34:00;7.47;;;4.60;;
8086;SDS011;4086;54.412;9.980;2023-04-21T09:36:27;5.77;;;4.63;;
8086;SDS011;4086;54.412;9.980;2023-04-21T09:38:55;6.70;;;4.70;;
8086;SDS011;4086;54.412;9.980;2023-04-21T09:41:22;9.37;;;4.73;;
8086;SDS011;4086;54.412;9.980;2023-04-21T09:43:50;5.83;;;4.00;;
8086;SDS011;4086;54.412;9.980;2023-04-21T09:46:17;10.37;;;4.80;;
8086;SDS011;4086;54.412;9.980;2023-04-21T09:48:44;7.37;;;4.17;;
8086;SDS011;4086;54.412;9.980;2023-04-21T09:51:12;5.57;;;4.00;;
8086;SDS011;4086;54.412;9.980;2023-04-21T09:53:40;6.93;;;4.37;;
8086;SDS011;4086;54.412;9.980;2023-04-21T09:56:09;7.00;;;4.13;;
8086;SDS011;4086;54.412;9.980;2023-04-21T09:58:39;7.13;;;4.23;;
8086;SDS011;4086;54.412;9.980;2023-04-21T10:01:07;6.83;;;4.40;;
8086;SDS011;4086;54.412;9.980;2023-04-21T10:03:34;8.10;;;4.17;;
8086;SDS011;4086;54.412;9.980;2023-04-21T10:06:03;8.30;;;4.63;;
8086;SDS011;4086;54.412;9.980;2023-04-21T10:08:30;7.53;;;4.80;;
8086;SDS011;4086;54.412;9.980;2023-04-21T10:10:57;5.87;;;4.50;;
8086;SDS011;4086;54.412;9.980;2023-04-21T10:13:23;7.63;;;4.30;;
8086;SDS011;4086;54.412;9.980;2023-04-21T10:15:55;5.97;;;4.40;;
8086;SDS011;4086;54.412;9.980;2023-04-21T10:18:28;7.20;;;4.30;;
8086;SDS011;4086;54.412;9.980;2023-04-21T10:20:55;5.77;;;4.33;;
8086;SDS011;4086;54.412;9.980;2023-04-21T10:23:28;9.07;;;4.80;;
8086;SDS011;4086;54.412;9.980;2023-04-21T10:26:02;9.97;;;4.60;;
8086;SDS011;4086;54.412;9.980;2023-04-21T10:28:37;6.23;;;4.37;;
8086;SDS011;4086;54.412;9.980;2023-04-21T10:31:18;6.90;;;4.80;;
8086;SDS011;4086;54.412;9.980;2023-04-21T10:34:15;5.67;;;4.30;;
8086;SDS011;4086;54.412;9.980;2023-04-21T10:36:43;6.50;;;4.60;;
8086;SDS011;4086;54.412;9.980;2023-04-21T10:39:24;6.53;;;4.53;;
8086;SDS011;4086;54.412;9.980;2023-04-21T10:41:53;6.13;;;4.70;;
8086;SDS011;4086;54.412;9.980;2023-04-21T10:44:20;5.70;;;4.67;;
8086;SDS011;4086;54.412;9.980;2023-04-21T10:46:47;5.53;;;4.60;;
8086;SDS011;4086;54.412;9.980;2023-04-21T10:49:21;6.70;;;4.33;;
8086;SDS011;4086;54.412;9.980;2023-04-21T10:52:04;6.37;;;4.77;;
8086;SDS011;4086;54.412;9.980;2023-04-21T10:54:40;5.50;;;4.87;;
8086;SDS011;4086;54.412;9.980;2023-04-21T10:57:09;6.13;;;4.63;;
8086;SDS011;4086;54.412;9.980;2023-04-21T10:59:37;5.93;;;4.90;;
8086;SDS011;4086;54.412;9.980;2023-04-21T11:02:03;6.83;;;5.00;;
8086;SDS011;4086;54.412;9.980;2023-04-21T11:04:32;5.57;;;5.07;;
8086;SDS011;4086;54.412;9.980;2023-04-21T11:07:05;6.77;;;5.13;;
8086;SDS011;4086;54.412;9.980;2023-04-21T11:09:32;6.33;;;4.97;;
8086;SDS011;4086;54.412;9.980;2023-04-21T11:11:58;6.53;;;4.80;;
8086;SDS011;4086;54.412;9.980;2023-04-21T11:14:26;5.53;;;4.60;;
8086;SDS011;4086;54.412;9.980;2023-04-21T11:16:52;7.83;;;4.83;;
8086;SDS011;4086;54.412;9.980;2023-04-21T11:19:19;6.53;;;4.37;;
8086;SDS011;4086;54.412;9.980;2023-04-21T11:21:49;6.57;;;4.73;;
8086;SDS011;4086;54.412;9.980;2023-04-21T11:24:16;5.37;;;4.87;;
8086;SDS011;4086;54.412;9.980;2023-04-21T11:26:42;6.20;;;4.97;;
8086;SDS011;4086;54.412;9.980;2023-04-21T11:29:09;5.87;;;4.97;;
8086;SDS011;4086;54.412;9.980;2023-04-21T11:31:36;7.83;;;4.90;;
8086;SDS011;4086;54.412;9.980;2023-04-21T11:34:04;8.17;;;4.90;;
8086;SDS011;4086;54.412;9.980;2023-04-21T11:36:31;6.47;;;4.97;;
8086;SDS011;4086;54.412;9.980;2023-04-21T11:39:02;5.53;;;4.97;;
8086;SDS011;4086;54.412;9.980;2023-04-21T11:41:32;8.77;;;5.07;;
8086;SDS011;4086;54.412;9.980;2023-04-21T11:43:58;5.93;;;4.80;;
8086;SDS011;4086;54.412;9.980;2023-04-21T11:46:26;6.83;;;4.97;;
8086;SDS011;4086;54.412;9.980;2023-04-21T11:48:59;6.47;;;5.10;;
8086;SDS011;4086;54.412;9.980;2023-04-21T11:51:25;5.57;;;4.67;;
8086;SDS011;4086;54.412;9.980;2023-04-21T11:53:53;5.53;;;5.00;;
8086;SDS011;4086;54.412;9.980;2023-04-21T11:56:21;6.37;;;4.90;;
8086;SDS011;4086;54.412;9.980;2023-04-21T11:58:48;7.57;;;5.10;;
8086;SDS011;4086;54.412;9.980;2023-04-21T12:01:16;5.50;;;5.00;;
8086;SDS011;4086;54.412;9.980;2023-04-21T12:03:49;8.93;;;5.50;;
8086;SDS011;4086;54.412;9.980;2023-04-21T12:06:19;6.20;;;4.90;;
8086;SDS011;4086;54.412;9.980;2023-04-21T12:08:45;6.57;;;5.10;;
8086;SDS011;4086;54.412;9.980;2023-04-21T12:11:14;7.60;;;5.00;;
8086;SDS011;4086;54.412;9.980;2023-04-21T12:13:42;5.53;;;4.80;;
8086;SDS011;4086;54.412;9.980;2023-04-21T12:16:09;7.23;;;4.53;;
8086;SDS011;4086;54.412;9.980;2023-04-21T12:18:36;7.30;;;5.00;;
8086;SDS011;4086;54.412;9.980;2023-04-21T12:21:02;6.77;;;4.90;;
8086;SDS011;4086;54.412;9.980;2023-04-21T12:23:29;7.23;;;5.00;;
8086;SDS011;4086;54.412;9.980;2023-04-21T12:25:56;6.10;;;5.13;;
8086;SDS011;4086;54.412;9.980;2023-04-21T12:28:22;5.70;;;5.17;;
8086;SDS011;4086;54.412;9.980;2023-04-21T12:30:50;6.83;;;5.07;;
8086;SDS011;4086;54.412;9.980;2023-04-21T12:33:16;6.40;;;5.37;;
8086;SDS011;4086;54.412;9.980;2023-04-21T12:35:43;7.63;;;5.30;;
8086;SDS011;4086;54.412;9.980;2023-04-21T12:38:09;6.10;;;5.27;;
8086;SDS011;4086;54.412;9.980;2023-04-21T12:40:36;7.10;;;5.10;;
8086;SDS011;4086;54.412;9.980;2023-04-21T12:43:02;5.83;;;5.20;;
8086;SDS011;4086;54.412;9.980;2023-04-21T12:45:28;7.10;;;5.33;;
8086;SDS011;4086;54.412;9.980;2023-04-21T12:47:57;5.60;;;5.10;;
8086;SDS011;4086;54.412;9.980;2023-04-21T12:50:23;7.40;;;5.23;;
8086;SDS011;4086;54.412;9.980;2023-04-21T12:52:49;6.30;;;5.17;;
8086;SDS011;4086;54.412;9.980;2023-04-21T12:55:19;8.23;;;5.70;;
8086;SDS011;4086;54.412;9.980;2023-04-21T12:57:45;8.30;;;5.63;;
8086;SDS011;4086;54.412;9.980;2023-04-21T13:00:12;7.17;;;5.63;;
8086;SDS011;4086;54.412;9.980;2023-04-21T13:02:39;8.97;;;6.00;;
8086;SDS011;4086;54.412;9.980;2023-04-21T13:05:07;7.00;;;5.63;;
8086;SDS011;4086;54.412;9.980;2023-04-21T13:07:36;7.83;;;5.10;;
8086;SDS011;4086;54.412;9.980;2023-04-21T13:10:02;7.77;;;5.53;;
8086;SDS011;4086;54.412;9.980;2023-04-21T13:12:30;7.70;;;6.03;;
8086;SDS011;4086;54.412;9.980;2023-04-21T13:14:57;8.57;;;5.73;;
8086;SDS011;4086;54.412;9.980;2023-04-21T13:17:23;6.40;;;5.60;;
8086;SDS011;4086;54.412;9.980;2023-04-21T13:19:49;7.20;;;5.97;;
8086;SDS011;4086;54.412;9.980;2023-04-21T13:22:17;9.37;;;6.10;;
8086;SDS011;4086;54.412;9.980;2023-04-21T13:24:44;10.97;;;5.70;;
8086;SDS011;4086;54.412;9.980;2023-04-21T13:27:10;8.63;;;5.90;;
8086;SDS011;4086;54.412;9.980;2023-04-21T13:29:36;8.47;;;6.00;;
8086;SDS011;4086;54.412;9.980;2023-04-21T13:32:04;7.80;;;6.20;;
8086;SDS011;4086;54.412;9.980;2023-04-21T13:34:32;7.07;;;5.90;;
8086;SDS011;4086;54.412;9.980;2023-04-21T13:36:58;6.37;;;5.77;;
8086;SDS011;4086;54.412;9.980;2023-04-21T13:39:26;8.00;;;5.70;;
8086;SDS011;4086;54.412;9.980;2023-04-21T13:41:53;7.83;;;5.37;;
8086;SDS011;4086;54.412;9.980;2023-04-21T13:44:19;8.80;;;6.10;;
8086;SDS011;4086;54.412;9.980;2023-04-21T13:46:46;6.80;;;5.80;;
8086;SDS011;4086;54.412;9.980;2023-04-21T13:49:12;6.73;;;5.87;;
8086;SDS011;4086;54.412;9.980;2023-04-21T13:51:39;7.27;;;5.70;;
8086;SDS011;4086;54.412;9.980;2023-04-21T13:54:06;6.73;;;5.63;;
8086;SDS011;4086;54.412;9.980;2023-04-21T13:56:33;10.03;;;5.97;;
8086;SDS011;4086;54.412;9.980;2023-04-21T13:59:00;7.80;;;6.57;;
8086;SDS011;4086;54.412;9.980;2023-04-21T14:01:26;6.20;;;5.57;;
8086;SDS011;4086;54.412;9.980;2023-04-21T14:03:52;7.90;;;6.10;;
8086;SDS011;4086;54.412;9.980;2023-04-21T14:06:20;8.87;;;5.77;;
8086;SDS011;4086;54.412;9.980;2023-04-21T14:08:47;7.43;;;5.93;;
8086;SDS011;4086;54.412;9.980;2023-04-21T14:11:13;7.70;;;6.03;;
8086;SDS011;4086;54.412;9.980;2023-04-21T14:13:41;9.43;;;6.20;;
8086;SDS011;4086;54.412;9.980;2023-04-21T14:16:07;9.80;;;6.87;;
8086;SDS011;4086;54.412;9.980;2023-04-21T14:18:34;8.27;;;6.17;;
8086;SDS011;4086;54.412;9.980;2023-04-21T14:21:01;7.47;;;6.63;;
8086;SDS011;4086;54.412;9.980;2023-04-21T14:23:28;7.83;;;6.30;;
8086;SDS011;4086;54.412;9.980;2023-04-21T14:25:54;7.23;;;6.17;;
8086;SDS011;4086;54.412;9.980;2023-04-21T14:28:20;9.57;;;6.07;;
8086;SDS011;4086;54.412;9.980;2023-04-21T14:30:48;6.80;;;5.83;;
8086;SDS011;4086;54.412;9.980;2023-04-21T14:33:14;6.63;;;5.47;;
8086;SDS011;4086;54.412;9.980;2023-04-21T14:35:41;8.13;;;6.00;;
8086;SDS011;4086;54.412;9.980;2023-04-21T14:38:07;9.93;;;6.80;;
8086;SDS011;4086;54.412;9.980;2023-04-21T14:40:34;9.00;;;6.30;;
8086;SDS011;4086;54.412;9.980;2023-04-21T14:43:00;8.57;;;5.90;;
8086;SDS011;4086;54.412;9.980;2023-04-21T14:45:26;12.43;;;6.37;;
8086;SDS011;4086;54.412;9.980;2023-04-21T14:47:54;8.07;;;6.27;;
8086;SDS011;4086;54.412;9.980;2023-04-21T14:50:20;11.77;;;6.27;;
8086;SDS011;4086;54.412;9.980;2023-04-21T14:52:47;7.70;;;6.20;;
8086;SDS011;4086;54.412;9.980;2023-04-21T14:55:13;6.90;;;5.93;;
8086;SDS011;4086;54.412;9.980;2023-04-21T14:57:40;7.53;;;6.03;;
8086;SDS011;4086;54.412;9.980;2023-04-21T15:00:06;8.77;;;6.22;;
8086;SDS011;4086;54.412;9.980;2023-04-21T15:02:34;7.37;;;6.40;;
8086;SDS011;4086;54.412;9.980;2023-04-21T15:05:02;8.63;;;6.30;;
8086;SDS011;4086;54.412;9.980;2023-04-21T15:07:29;6.93;;;6.03;;
8086;SDS011;4086;54.412;9.980;2023-04-21T15:09:55;8.88;;;7.03;;
8086;SDS011;4086;54.412;9.980;2023-04-21T15:12:22;6.78;;;6.03;;
8086;SDS011;4086;54.412;9.980;2023-04-21T15:14:48;6.40;;;5.80;;
8086;SDS011;4086;54.412;9.980;2023-04-21T15:17:15;9.93;;;7.00;;
8086;SDS011;4086;54.412;9.980;2023-04-21T15:19:41;6.93;;;5.88;;
8086;SDS011;4086;54.412;9.980;2023-04-21T15:22:09;9.60;;;6.53;;
8086;SDS011;4086;54.412;9.980;2023-04-21T15:24:36;7.77;;;6.23;;
8086;SDS011;4086;54.412;9.980;2023-04-21T15:27:02;7.20;;;6.10;;
8086;SDS011;4086;54.412;9.980;2023-04-21T15:29:28;7.25;;;5.93;;
8086;SDS011;4086;54.412;9.980;2023-04-21T15:31:55;8.20;;;6.30;;
8086;SDS011;4086;54.412;9.980;2023-04-21T15:34:21;8.57;;;5.65;;
8086;SDS011;4086;54.412;9.980;2023-04-21T15:36:47;7.50;;;5.90;;
8086;SDS011;4086;54.412;9.980;2023-04-21T15:39:15;6.20;;;5.60;;
8086;SDS011;4086;54.412;9.980;2023-04-21T15:41:41;7.60;;;5.65;;
8086;SDS011;4086;54.412;9.980;2023-04-21T15:44:08;9.57;;;5.53;;
8086;SDS011;4086;54.412;9.980;2023-04-21T15:46:35;7.85;;;6.30;;
8086;SDS011;4086;54.412;9.980;2023-04-21T15:49:02;6.97;;;5.68;;
8086;SDS011;4086;54.412;9.980;2023-04-21T15:51:28;11.77;;;6.25;;
8086;SDS011;4086;54.412;9.980;2023-04-21T15:53:55;7.10;;;5.70;;
8086;SDS011;4086;54.412;9.980;2023-04-21T15:56:23;8.40;;;6.00;;
8086;SDS011;4086;54.412;9.980;2023-04-21T15:58:49;9.10;;;6.53;;
8086;SDS011;4086;54.412;9.980;2023-04-21T16:01:16;7.38;;;5.85;;
8086;SDS011;4086;54.412;9.980;2023-04-21T16:03:42;8.88;;;5.93;;
8086;SDS011;4086;54.412;9.980;2023-04-21T16:06:10;6.55;;;5.32;;
8086;SDS011;4086;54.412;9.980;2023-04-21T16:08:36;7.22;;;5.45;;
8086;SDS011;4086;54.412;9.980;2023-04-21T16:11:02;8.85;;;5.93;;
8086;SDS011;4086;54.412;9.980;2023-04-21T16:13:30;9.32;;;6.22;;
8086;SDS011;4086;54.412;9.980;2023-04-21T16:15:57;7.03;;;5.55;;
8086;SDS011;4086;54.412;9.980;2023-04-21T16:18:23;6.32;;;5.72;;
8086;SDS011;4086;54.412;9.980;2023-04-21T16:20:49;9.40;;;5.20;;
8086;SDS011;4086;54.412;9.980;2023-04-21T16:23:16;9.53;;;5.30;;
8086;SDS011;4086;54.412;9.980;2023-04-21T16:25:42;6.77;;;5.10;;
8086;SDS011;4086;54.412;9.980;2023-04-21T16:28:09;6.73;;;5.37;;
8086;SDS011;4086;54.412;9.980;2023-04-21T16:30:37;13.23;;;6.00;;
8086;SDS011;4086;54.412;9.980;2023-04-21T16:33:07;9.23;;;5.70;;
8086;SDS011;4086;54.412;9.980;2023-04-21T16:35:34;9.83;;;6.00;;
8086;SDS011;4086;54.412;9.980;2023-04-21T16:38:01;7.17;;;5.60;;
8086;SDS011;4086;54.412;9.980;2023-04-21T16:40:27;6.00;;;5.20;;
8086;SDS011;4086;54.412;9.980;2023-04-21T16:42:54;5.43;;;4.90;;
8086;SDS011;4086;54.412;9.980;2023-04-21T16:45:20;7.10;;;4.73;;
8086;SDS011;4086;54.412;9.980;2023-04-21T16:47:48;7.23;;;5.13;;
8086;SDS011;4086;54.412;9.980;2023-04-21T16:50:14;7.67;;;5.60;;
8086;SDS011;4086;54.412;9.980;2023-04-21T16:52:40;8.93;;;5.27;;
8086;SDS011;4086;54.412;9.980;2023-04-21T16:55:07;6.70;;;4.77;;
8086;SDS011;4086;54.412;9.980;2023-04-21T16:57:34;7.40;;;4.50;;
8086;SDS011;4086;54.412;9.980;2023-04-21T17:00:00;7.93;;;4.50;;
8086;SDS011;4086;54.412;9.980;2023-04-21T17:02:29;6.67;;;4.13;;
8086;SDS011;4086;54.412;9.980;2023-04-21T17:04:57;8.23;;;4.07;;
8086;SDS011;4086;54.412;9.980;2023-04-21T17:07:23;5.80;;;4.40;;
8086;SDS011;4086;54.412;9.980;2023-04-21T17:09:49;7.63;;;4.37;;
8086;SDS011;4086;54.412;9.980;2023-04-21T17:12:16;5.43;;;4.10;;
8086;SDS011;4086;54.412;9.980;2023-04-21T17:14:42;9.97;;;4.63;;
8086;SDS011;4086;54.412;9.980;2023-04-21T17:17:08;8.17;;;4.40;;
8086;SDS011;4086;54.412;9.980;2023-04-21T17:19:35;10.23;;;4.60;;
8086;SDS011;4086;54.412;9.980;2023-04-21T17:22:03;5.80;;;4.10;;
8086;SDS011;4086;54.412;9.980;2023-04-21T17:24:29;8.50;;;4.70;;
8086;SDS011;4086;54.412;9.980;2023-04-21T17:26:55;9.97;;;4.70;;
8086;SDS011;4086;54.412;9.980;2023-04-21T17:29:22;6.93;;;4.20;;
8086;SDS011;4086;54.412;9.980;2023-04-21T17:31:48;7.40;;;4.40;;
8086;SDS011;4086;54.412;9.980;2023-04-21T17:34:15;6.97;;;3.97;;
8086;SDS011;4086;54.412;9.980;2023-04-21T17:36:41;6.53;;;3.97;;
8086;SDS011;4086;54.412;9.980;2023-04-21T17:39:09;5.13;;;4.00;;
8086;SDS011;4086;54.412;9.980;2023-04-21T17:41:36;8.73;;;4.07;;
8086;SDS011;4086;54.412;9.980;2023-04-21T17:44:02;8.93;;;4.27;;
8086;SDS011;4086;54.412;9.980;2023-04-21T17:46:29;5.13;;;4.07;;
8086;SDS011;4086;54.412;9.980;2023-04-21T17:48:55;6.33;;;4.03;;
8086;SDS011;4086;54.412;9.980;2023-04-21T17:51:22;7.53;;;4.03;;
8086;SDS011;4086;54.412;9.980;2023-04-21T17:53:48;8.47;;;4.03;;
8086;SDS011;4086;54.412;9.980;2023-04-21T17:56:16;5.87;;;3.70;;
8086;SDS011;4086;54.412;9.980;2023-04-21T17:58:42;6.33;;;3.53;;
8086;SDS011;4086;54.412;9.980;2023-04-21T18:01:09;6.87;;;4.03;;
8086;SDS011;4086;54.412;9.980;2023-04-21T18:03:36;6.90;;;3.97;;
8086;SDS011;4086;54.412;9.980;2023-04-21T18:06:05;6.50;;;3.67;;
8086;SDS011;4086;54.412;9.980;2023-04-21T18:08:33;8.87;;;3.50;;
8086;SDS011;4086;54.412;9.980;2023-04-21T18:11:00;6.20;;;3.37;;
8086;SDS011;4086;54.412;9.980;2023-04-21T18:13:27;5.70;;;3.70;;
8086;SDS011;4086;54.412;9.980;2023-04-21T18:15:54;6.60;;;3.47;;
8086;SDS011;4086;54.412;9.980;2023-04-21T18:18:21;6.73;;;3.90;;
8086;SDS011;4086;54.412;9.980;2023-04-21T18:20:47;8.33;;;4.07;;
8086;SDS011;4086;54.412;9.980;2023-04-21T18:23:14;5.37;;;3.80;;
8086;SDS011;4086;54.412;9.980;2023-04-21T18:25:40;5.53;;;3.57;;
8086;SDS011;4086;54.412;9.980;2023-04-21T18:28:06;10.13;;;4.07;;
8086;SDS011;4086;54.412;9.980;2023-04-21T18:30:36;6.77;;;4.30;;
8086;SDS011;4086;54.412;9.980;2023-04-21T18:33:02;6.23;;;5.50;;
8086;SDS011;4086;54.412;9.980;2023-04-21T18:35:29;10.07;;;4.77;;
8086;SDS011;4086;54.412;9.980;2023-04-21T18:37:57;5.87;;;4.27;;
8086;SDS011;4086;54.412;9.980;2023-04-21T18:40:23;8.93;;;4.37;;
8086;SDS011;4086;54.412;9.980;2023-04-21T18:42:49;7.03;;;4.60;;
8086;SDS011;4086;54.412;9.980;2023-04-21T18:45:16;4.10;;;2.97;;
8086;SDS011;4086;54.412;9.980;2023-04-21T18:47:44;4.20;;;3.40;;
8086;SDS011;4086;54.412;9.980;2023-04-21T18:50:11;6.03;;;3.50;;
8086;SDS011;4086;54.412;9.980;2023-04-21T18:52:37;6.47;;;3.70;;
8086;SDS011;4086;54.412;9.980;2023-04-21T18:55:04;9.27;;;4.03;;
8086;SDS011;4086;54.412;9.980;2023-04-21T18:57:31;5.43;;;3.60;;
8086;SDS011;4086;54.412;9.980;2023-04-21T18:59:57;5.63;;;3.53;;
8086;SDS011;4086;54.412;9.980;2023-04-21T19:02:24;10.30;;;3.60;;
8086;SDS011;4086;54.412;9.980;2023-04-21T19:04:51;6.00;;;3.90;;
8086;SDS011;4086;54.412;9.980;2023-04-21T19:07:18;3.53;;;3.23;;
8086;SDS011;4086;54.412;9.980;2023-04-21T19:09:44;3.83;;;3.40;;
8086;SDS011;4086;54.412;9.980;2023-04-21T19:12:11;5.60;;;3.40;;
8086;SDS011;4086;54.412;9.980;2023-04-21T19:14:38;4.50;;;3.80;;
8086;SDS011;4086;54.412;9.980;2023-04-21T19:17:04;5.93;;;3.77;;
8086;SDS011;4086;54.412;9.980;2023-04-21T19:19:31;5.53;;;3.80;;
8086;SDS011;4086;54.412;9.980;2023-04-21T19:21:58;5.90;;;3.87;;
8086;SDS011;4086;54.412;9.980;2023-04-21T19:24:25;5.10;;;3.57;;
8086;SDS011;4086;54.412;9.980;2023-04-21T19:26:51;5.80;;;3.70;;
8086;SDS011;4086;54.412;9.980;2023-04-21T19:29:17;6.40;;;3.73;;
8086;SDS011;4086;54.412;9.980;2023-04-21T19:31:44;7.73;;;4.00;;
8086;SDS011;4086;54.412;9.980;2023-04-21T19:34:10;5.77;;;3.50;;
8086;SDS011;4086;54.412;9.980;2023-04-21T19:36:37;5.03;;;3.53;;
8086;SDS011;4086;54.412;9.980;2023-04-21T19:39:04;4.53;;;3.57;;
8086;SDS011;4086;54.412;9.980;2023-04-21T19:41:31;5.87;;;3.73;;
8086;SDS011;4086;54.412;9.980;2023-04-21T19:43:57;4.97;;;3.33;;
8086;SDS011;4086;54.412;9.980;2023-04-21T19:46:24;3.87;;;3.50;;
8086;SDS011;4086;54.412;9.980;2023-04-21T19:48:51;6.60;;;3.77;;
8086;SDS011;4086;54.412;9.980;2023-04-21T19:51:18;4.20;;;3.50;;
8086;SDS011;4086;54.412;9.980;2023-04-21T19:53:45;4.30;;;3.50;;
8086;SDS011;4086;54.412;9.980;2023-04-21T19:56:13;5.07;;;3.20;;
8086;SDS011;4086;54.412;9.980;2023-04-21T19:58:40;5.10;;;3.33;;
8086;SDS011;4086;54.412;9.980;2023-04-21T20:01:06;5.10;;;3.13;;
8086;SDS011;4086;54.412;9.980;2023-04-21T20:03:32;5.77;;;3.50;;
8086;SDS011;4086;54.412;9.980;2023-04-21T20:05:59;3.97;;;3.13;;
8086;SDS011;4086;54.412;9.980;2023-04-21T20:08:28;6.20;;;3.17;;
8086;SDS011;4086;54.412;9.980;2023-04-21T20:10:55;3.83;;;3.10;;
8086;SDS011;4086;54.412;9.980;2023-04-21T20:13:22;6.27;;;3.53;;
8086;SDS011;4086;54.412;9.980;2023-04-21T20:15:49;4.50;;;3.03;;
8086;SDS011;4086;54.412;9.980;2023-04-21T20:18:15;7.17;;;3.53;;
8086;SDS011;4086;54.412;9.980;2023-04-21T20:20:41;5.67;;;3.50;;
8086;SDS011;4086;54.412;9.980;2023-04-21T20:23:08;4.97;;;3.40;;
8086;SDS011;4086;54.412;9.980;2023-04-21T20:25:34;3.60;;;3.00;;
8086;SDS011;4086;54.412;9.980;2023-04-21T20:28:00;5.13;;;3.00;;
8086;SDS011;4086;54.412;9.980;2023-04-21T20:30:28;3.63;;;3.10;;
8086;SDS011;4086;54.412;9.980;2023-04-21T20:32:55;3.90;;;3.10;;
8086;SDS011;4086;54.412;9.980;2023-04-21T20:35:21;2.60;;;2.40;;
8086;SDS011;4086;54.412;9.980;2023-04-21T20:37:47;4.27;;;2.90;;
8086;SDS011;4086;54.412;9.980;2023-04-21T20:40:14;3.73;;;2.97;;
8086;SDS011;4086;54.412;9.980;2023-04-21T20:42:42;5.03;;;2.97;;
8086;SDS011;4086;54.412;9.980;2023-04-21T20:45:09;3.50;;;2.73;;
8086;SDS011;4086;54.412;9.980;2023-04-21T20:47:38;5.83;;;3.20;;
8086;SDS011;4086;54.412;9.980;2023-04-21T20:50:05;4.67;;;2.90;;
8086;SDS011;4086;54.412;9.980;2023-04-21T20:52:32;4.63;;;2.93;;
8086;SDS011;4086;54.412;9.980;2023-04-21T20:54:58;5.63;;;3.17;;
8086;SDS011;4086;54.412;9.980;2023-04-21T20:57:25;5.10;;;3.00;;
8086;SDS011;4086;54.412;9.980;2023-04-21T20:59:52;3.73;;;3.43;;
8086;SDS011;4086;54.412;9.980;2023-04-21T21:02:18;3.57;;;2.93;;
8086;SDS011;4086;54.412;9.980;2023-04-21T21:04:46;3.17;;;2.87;;
8086;SDS011;4086;54.412;9.980;2023-04-21T21:07:12;4.47;;;2.90;;
8086;SDS011;4086;54.412;9.980;2023-04-21T21:09:39;3.60;;;2.90;;
8086;SDS011;4086;54.412;9.980;2023-04-21T21:12:05;4.33;;;2.87;;
8086;SDS011;4086;54.412;9.980;2023-04-21T21:14:31;4.77;;;2.90;;
8086;SDS011;4086;54.412;9.980;2023-04-21T21:16:58;4.97;;;2.80;;
8086;SDS011;4086;54.412;9.980;2023-04-21T21:19:25;6.13;;;3.30;;
8086;SDS011;4086;54.412;9.980;2023-04-21T21:21:53;4.83;;;3.27;;
8086;SDS011;4086;54.412;9.980;2023-04-21T21:24:19;3.30;;;2.90;;
8086;SDS011;4086;54.412;9.980;2023-04-21T21:26:45;4.40;;;3.10;;
8086;SDS011;4086;54.412;9.980;2023-04-21T21:29:12;5.07;;;3.10;;
8086;SDS011;4086;54.412;9.980;2023-04-21T21:31:38;3.80;;;3.00;;
8086;SDS011;4086;54.412;9.980;2023-04-21T21:34:05;6.13;;;2.90;;
8086;SDS011;4086;54.412;9.980;2023-04-21T21:36:31;3.57;;;3.07;;
8086;SDS011;4086;54.412;9.980;2023-04-21T21:38:59;3.77;;;3.10;;
8086;SDS011;4086;54.412;9.980;2023-04-21T21:41:25;3.77;;;2.80;;
8086;SDS011;4086;54.412;9.980;2023-04-21T21:43:52;4.87;;;2.80;;
8086;SDS011;4086;54.412;9.980;2023-04-21T21:46:18;3.07;;;2.77;;
8086;SDS011;4086;54.412;9.980;2023-04-21T21:48:46;2.93;;;2.60;;
8086;SDS011;4086;54.412;9.980;2023-04-21T21:51:12;4.60;;;3.20;;
8086;SDS011;4086;54.412;9.980;2023-04-21T21:53:38;3.00;;;2.70;;
8086;SDS011;4086;54.412;9.980;2023-04-21T21:56:06;4.77;;;3.13;;
8086;SDS011;4086;54.412;9.980;2023-04-21T21:58:33;5.03;;;2.90;;
8086;SDS011;4086;54.412;9.980;2023-04-21T22:00:59;4.73;;;3.20;;
8086;SDS011;4086;54.412;9.980;2023-04-21T22:03:25;4.90;;;2.77;;
8086;SDS011;4086;54.412;9.980;2023-04-21T22:05:52;3.43;;;2.70;;
8086;SDS011;4086;54.412;9.980;2023-04-21T22:08:18;3.50;;;2.50;;
8086;SDS011;4086;54.412;9.980;2023-04-21T22:10:45;5.13;;;3.07;;
8086;SDS011;4086;54.412;9.980;2023-04-21T22:13:13;3.70;;;3.03;;
8086;SDS011;4086;54.412;9.980;2023-04-21T22:15:39;5.83;;;3.30;;
8086;SDS011;4086;54.412;9.980;2023-04-21T22:18:05;4.77;;;3.00;;
8086;SDS011;4086;54.412;9.980;2023-04-21T22:20:33;4.53;;;2.80;;
8086;SDS011;4086;54.412;9.980;2023-04-21T22:23:00;8.20;;;3.20;;
8086;SDS011;4086;54.412;9.980;2023-04-21T22:25:26;3.83;;;3.00;;
8086;SDS011;4086;54.412;9.980;2023-04-21T22:27:53;3.80;;;3.30;;
8086;SDS011;4086;54.412;9.980;2023-04-21T22:30:21;3.73;;;2.90;;
8086;SDS011;4086;54.412;9.980;2023-04-21T22:32:47;5.03;;;3.27;;
8086;SDS011;4086;54.412;9.980;2023-04-21T22:35:14;3.17;;;2.87;;
8086;SDS011;4086;54.412;9.980;2023-04-21T22:37:40;4.87;;;3.10;;
8086;SDS011;4086;54.412;9.980;2023-04-21T22:40:07;4.50;;;2.93;;
8086;SDS011;4086;54.412;9.980;2023-04-21T22:42:35;4.00;;;2.87;;
8086;SDS011;4086;54.412;9.980;2023-04-21T22:45:01;4.50;;;3.00;;
8086;SDS011;4086;54.412;9.980;2023-04-21T22:47:30;4.90;;;2.67;;
8086;SDS011;4086;54.412;9.980;2023-04-21T22:49:57;5.43;;;3.20;;
8086;SDS011;4086;54.412;9.980;2023-04-21T22:52:24;4.13;;;3.03;;
8086;SDS011;4086;54.412;9.980;2023-04-21T22:54:51;4.20;;;3.07;;
8086;SDS011;4086;54.412;9.980;2023-04-21T22:57:17;4.20;;;2.77;;
8086;SDS011;4086;54.412;9.980;2023-04-21T22:59:43;3.77;;;3.10;;
8086;SDS011;4086;54.412;9.980;2023-04-21T23:02:10;6.67;;;3.30;;
8086;SDS011;4086;54.412;9.980;2023-04-21T23:04:37;5.00;;;3.10;;
8086;SDS011;4086;54.412;9.980;2023-04-21T23:07:04;4.37;;;3.03;;
8086;SDS011;4086;54.412;9.980;2023-04-21T23:09:30;4.10;;;3.00;;
8086;SDS011;4086;54.412;9.980;2023-04-21T23:11:57;5.17;;;2.80;;
8086;SDS011;4086;54.412;9.980;2023-04-21T23:14:23;4.43;;;3.10;;
8086;SDS011;4086;54.412;9.980;2023-04-21T23:16:50;3.60;;;2.80;;
8086;SDS011;4086;54.412;9.980;2023-04-21T23:19:16;3.70;;;2.90;;
8086;SDS011;4086;54.412;9.980;2023-04-21T23:21:44;3.77;;;2.90;;
8086;SDS011;4086;54.412;9.980;2023-04-21T23:24:10;3.93;;;3.30;;
8086;SDS011;4086;54.412;9.980;2023-04-21T23:26:37;3.20;;;2.80;;
8086;SDS011;4086;54.412;9.980;2023-04-21T23:29:03;3.77;;;2.57;;
8086;SDS011;4086;54.412;9.980;2023-04-21T23:31:29;4.00;;;3.17;;
8086;SDS011;4086;54.412;9.980;2023-04-21T23:33:56;3.80;;;2.70;;
8086;SDS011;4086;54.412;9.980;2023-04-21T23:36:24;4.87;;;2.90;;
8086;SDS011;4086;54.412;9.980;2023-04-21T23:38:52;3.60;;;2.70;;
8086;SDS011;4086;54.412;9.980;2023-04-21T23:41:20;5.27;;;3.23;;
8086;SDS011;4086;54.412;9.980;2023-04-21T23:43:47;4.07;;;2.77;;
8086;SDS011;4086;54.412;9.980;2023-04-21T23:46:13;6.03;;;3.30;;
8086;SDS011;4086;54.412;9.980;2023-04-21T23:48:40;3.60;;;2.90;;
8086;SDS011;4086;54.412;9.980;2023-04-21T23:51:06;5.50;;;3.50;;
8086;SDS011;4086;54.412;9.980;2023-04-21T23:53:33;3.70;;;3.00;;
8086;SDS011;4086;54.412;9.980;2023-04-21T23:56:00;4.37;;;3.43;;
8086;SDS011;4086;54.412;9.980;2023-04-21T23:58:27;5.43;;;3.50;;
